createdAt,value
2022-09-28T00:01:18.893Z,14.75
2022-09-28T00:03:47.910Z,16.75
2022-09-28T00:06:19.553Z,16.08
2022-09-28T00:08:47.496Z,15.02
2022-09-28T00:11:18.905Z,15.23
2022-09-28T00:13:49.895Z,15.15
2022-09-28T00:16:19.779Z,15.82
2022-09-28T00:18:47.402Z,16.27
2022-09-28T00:21:17.222Z,14.40
2022-09-28T00:24:04.151Z,18.88
2022-09-28T00:26:33.180Z,14.05
2022-09-28T00:29:02.299Z,16.35
2022-09-28T00:31:33.093Z,15.55
2022-09-28T00:34:02.048Z,19.08
2022-09-28T00:36:32.118Z,15.63
2022-09-28T00:39:04.562Z,16.73
2022-09-28T00:41:31.972Z,15.98
2022-09-28T00:44:27.016Z,16.63
2022-09-28T00:47:01.376Z,15.15
2022-09-28T00:49:44.034Z,14.68
2022-09-28T00:52:15.797Z,14.57
2022-09-28T00:54:45.399Z,14.98
2022-09-28T00:57:13.914Z,15.32
2022-09-28T00:59:42.355Z,13.52
2022-09-28T01:02:10.696Z,16.67
2022-09-28T01:04:39.086Z,16.00
2022-09-28T01:07:09.160Z,15.43
2022-09-28T01:09:40.788Z,17.17
2022-09-28T01:12:08.519Z,17.35
2022-09-28T01:14:35.857Z,14.77
2022-09-28T01:17:06.843Z,17.95
2022-09-28T01:20:05.725Z,16.45
2022-09-28T01:22:45.259Z,16.10
2022-09-28T01:25:25.678Z,16.23
2022-09-28T01:27:59.880Z,14.82
2022-09-28T01:30:27.351Z,15.25
2022-09-28T01:33:06.767Z,16.80
2022-09-28T01:35:43.321Z,17.15
2022-09-28T01:38:18.027Z,17.05
2022-09-28T01:40:48.027Z,21.08
2022-09-28T01:43:20.590Z,19.20
2022-09-28T01:46:05.038Z,20.13
2022-09-28T01:48:45.288Z,18.00
2022-09-28T01:51:21.587Z,19.98
2022-09-28T01:53:53.678Z,19.58
2022-09-28T01:56:34.159Z,26.20
2022-09-28T01:59:10.763Z,18.50
2022-09-28T02:01:46.094Z,18.63
2022-09-28T02:04:19.884Z,16.98
2022-09-28T02:07:01.108Z,22.05
2022-09-28T02:09:49.779Z,20.88
2022-09-28T02:12:24.871Z,22.25
2022-09-28T02:14:58.947Z,21.40
2022-09-28T02:17:26.418Z,23.58
2022-09-28T02:19:53.667Z,19.42
2022-09-28T02:22:40.726Z,22.45
2022-09-28T02:25:27.211Z,20.30
2022-09-28T02:28:04.706Z,20.02
2022-09-28T02:30:35.773Z,22.08
2022-09-28T02:33:12.635Z,20.40
2022-09-28T02:35:42.207Z,23.73
2022-09-28T02:38:13.726Z,24.25
2022-09-28T02:40:48.426Z,21.70
2022-09-28T02:43:27.339Z,21.90
2022-09-28T02:46:03.881Z,22.35
2022-09-28T02:49:22.303Z,23.48
2022-09-28T02:52:03.996Z,22.67
2022-09-28T02:54:33.892Z,24.42
2022-09-28T02:57:17.462Z,25.27
2022-09-28T02:59:59.801Z,22.77
2022-09-28T03:02:50.063Z,23.30
2022-09-28T03:05:25.721Z,22.92
2022-09-28T03:07:58.979Z,22.70
2022-09-28T03:10:51.972Z,25.52
2022-09-28T03:13:21.024Z,22.75
2022-09-28T03:15:49.076Z,22.80
2022-09-28T03:18:18.424Z,21.13
2022-09-28T03:20:45.882Z,23.13
2022-09-28T03:23:24.303Z,24.63
2022-09-28T03:25:52.727Z,22.33
2022-09-28T03:28:21.332Z,27.40
2022-09-28T03:30:49.734Z,22.98
2022-09-28T03:33:17.503Z,22.00
2022-09-28T03:35:48.425Z,14.73
2022-09-28T03:38:18.616Z,13.52
2022-09-28T03:40:59.952Z,11.07
2022-09-28T03:43:31.275Z,7.25
2022-09-28T03:46:02.273Z,8.95
2022-09-28T03:48:36.502Z,7.72
2022-09-28T03:51:07.168Z,5.85
2022-09-28T03:53:34.314Z,5.97
2022-09-28T03:56:07.563Z,4.70
2022-09-28T03:58:35.557Z,5.13
2022-09-28T04:01:14.172Z,5.80
2022-09-28T04:03:46.128Z,7.35
2022-09-28T04:06:14.108Z,5.95
2022-09-28T04:08:41.325Z,6.60
2022-09-28T04:11:09.598Z,6.15
2022-09-28T04:13:37.339Z,5.50
2022-09-28T04:16:07.122Z,5.45
2022-09-28T04:18:35.936Z,4.28
2022-09-28T04:21:14.275Z,5.15
2022-09-28T04:23:47.495Z,4.60
2022-09-28T04:26:19.714Z,4.43
2022-09-28T04:29:07.273Z,6.70
2022-09-28T04:31:50.597Z,4.60
2022-09-28T04:34:21.002Z,4.68
2022-09-28T04:36:49.991Z,4.93
2022-09-28T04:39:18.342Z,4.88
2022-09-28T04:41:52.191Z,4.28
2022-09-28T04:44:19.680Z,5.07
2022-09-28T04:46:48.095Z,3.30
2022-09-28T04:49:30.710Z,3.00
2022-09-28T04:52:04.282Z,2.83
2022-09-28T04:54:31.870Z,3.38
2022-09-28T04:56:59.098Z,3.58
2022-09-28T04:59:26.389Z,2.55
2022-09-28T05:01:54.250Z,3.33
2022-09-28T05:04:26.166Z,3.13
2022-09-28T05:07:12.126Z,3.50
2022-09-28T05:09:39.499Z,6.80
2022-09-28T05:12:08.230Z,6.32
2022-09-28T05:14:35.975Z,6.40
2022-09-28T05:17:04.800Z,6.10
2022-09-28T05:19:47.931Z,4.47
2022-09-28T05:22:15.915Z,5.07
2022-09-28T05:24:46.885Z,6.07
2022-09-28T05:27:15.147Z,3.33
2022-09-28T05:29:45.590Z,3.38
2022-09-28T05:32:49.248Z,4.30
2022-09-28T05:35:27.746Z,3.38
2022-09-28T05:37:55.559Z,3.38
2022-09-28T05:40:23.318Z,8.60
2022-09-28T05:42:50.560Z,4.03
2022-09-28T05:45:18.187Z,4.65
2022-09-28T05:47:46.296Z,34.03
2022-09-28T05:50:18.813Z,27.70
2022-09-28T05:52:47.147Z,42.28
2022-09-28T05:55:14.540Z,25.70
2022-09-28T05:57:42.551Z,20.80
2022-09-28T06:00:10.370Z,21.85
2022-09-28T06:02:42.010Z,18.48
2022-09-28T06:05:12.144Z,25.85
2022-09-28T06:07:39.493Z,19.70
2022-09-28T06:10:07.457Z,11.05
2022-09-28T06:12:42.705Z,11.00
2022-09-28T06:15:15.742Z,7.53
2022-09-28T06:17:44.372Z,8.65
2022-09-28T06:20:33.539Z,6.68
2022-09-28T06:23:27.341Z,7.18
2022-09-28T06:25:55.283Z,7.50
2022-09-28T06:28:22.510Z,6.75
2022-09-28T06:30:49.952Z,6.30
2022-09-28T06:33:18.823Z,5.88
2022-09-28T06:35:46.543Z,7.60
2022-09-28T06:38:14.224Z,8.77
2022-09-28T06:40:41.645Z,11.25
2022-09-28T06:43:15.223Z,9.32
2022-09-28T06:46:02.589Z,8.95
2022-09-28T06:48:42.709Z,9.00
2022-09-28T06:51:13.797Z,7.05
2022-09-28T06:54:07.288Z,5.00
2022-09-28T06:56:41.197Z,9.73
2022-09-28T06:59:08.324Z,26.95
2022-09-28T07:01:37.394Z,6.78
2022-09-28T07:04:21.019Z,5.95
2022-09-28T07:07:08.948Z,11.77
2022-09-28T07:09:55.619Z,21.80
2022-09-28T07:12:49.813Z,14.32
2022-09-28T07:15:27.640Z,9.60
2022-09-28T07:18:03.707Z,12.75
2022-09-28T07:20:46.345Z,31.13
2022-09-28T07:23:19.853Z,10.05
2022-09-28T07:26:26.039Z,11.40
2022-09-28T07:29:01.954Z,12.30
2022-09-28T07:31:38.659Z,15.48
2022-09-28T07:34:24.329Z,6.13
2022-09-28T07:36:59.672Z,6.70
2022-09-28T07:39:27.233Z,8.43
2022-09-28T07:41:59.686Z,5.95
2022-09-28T07:44:30.306Z,7.00
2022-09-28T07:47:02.652Z,6.32
2022-09-28T07:50:08.614Z,4.90
2022-09-28T07:52:53.220Z,4.35
2022-09-28T07:55:28.473Z,5.13
2022-09-28T07:58:07.453Z,5.65
2022-09-28T08:00:47.660Z,15.93
2022-09-28T08:03:20.099Z,8.35
2022-09-28T08:05:48.181Z,4.85
2022-09-28T08:08:16.197Z,6.82
2022-09-28T08:10:47.317Z,5.60
2022-09-28T08:13:27.529Z,5.43
2022-09-28T08:16:15.950Z,5.32
2022-09-28T08:19:15.865Z,5.82
2022-09-28T08:21:45.947Z,7.65
2022-09-28T08:24:15.710Z,7.47
2022-09-28T08:26:44.296Z,7.15
2022-09-28T08:29:12.910Z,7.53
2022-09-28T08:31:52.568Z,8.73
2022-09-28T08:37:27.289Z,8.05
2022-09-28T08:40:13.648Z,9.25
2022-09-28T08:43:03.117Z,9.40
2022-09-28T08:45:53.674Z,9.70
2022-09-28T08:49:24.188Z,10.75
2022-09-28T08:52:26.056Z,10.02
2022-09-28T08:55:17.329Z,16.20
2022-09-28T08:57:55.363Z,22.73
2022-09-28T09:00:46.739Z,17.08
2022-09-28T09:03:21.271Z,20.73
2022-09-28T09:06:27.648Z,15.27
2022-09-28T09:09:09.954Z,31.23
2022-09-28T09:11:52.168Z,23.58
2022-09-28T09:14:37.023Z,20.50
2022-09-28T09:17:12.563Z,38.47
2022-09-28T09:19:55.402Z,30.38
2022-09-28T09:23:01.085Z,31.52
2022-09-28T09:25:41.379Z,23.67
2022-09-28T09:28:12.674Z,16.45
2022-09-28T09:30:55.259Z,21.25
2022-09-28T09:33:25.852Z,18.50
2022-09-28T09:36:36.567Z,20.55
2022-09-28T09:39:27.001Z,18.75
2022-09-28T09:42:39.019Z,26.10
2022-09-28T09:45:51.544Z,17.10
2022-09-28T09:48:50.800Z,27.55
2022-09-28T09:51:48.981Z,26.05
2022-09-28T09:54:24.090Z,18.55
2022-09-28T09:57:11.172Z,17.13
2022-09-28T10:00:04.431Z,21.83
2022-09-28T10:02:57.305Z,31.08
2022-09-28T10:05:39.073Z,28.90
2022-09-28T10:08:09.310Z,35.25
2022-09-28T10:11:08.591Z,21.40
2022-09-28T10:13:40.806Z,28.75
2022-09-28T10:16:28.130Z,36.55
2022-09-28T10:19:01.038Z,22.80
2022-09-28T10:22:02.687Z,25.80
2022-09-28T10:24:46.884Z,31.63
2022-09-28T10:27:16.898Z,21.58
2022-09-28T10:29:58.006Z,35.78
2022-09-28T10:32:28.349Z,20.25
2022-09-28T10:35:19.134Z,27.35
2022-09-28T10:38:01.770Z,21.50
2022-09-28T10:40:47.896Z,19.15
2022-09-28T10:43:33.688Z,21.27
2022-09-28T10:46:12.166Z,20.33
2022-09-28T10:48:47.163Z,20.38
2022-09-28T10:51:14.659Z,18.10
2022-09-28T10:54:04.402Z,17.83
2022-09-28T10:56:53.596Z,23.05
2022-09-28T11:02:37.637Z,15.07
2022-09-28T11:05:24.210Z,15.77
2022-09-28T11:07:55.967Z,17.58
2022-09-28T11:10:31.412Z,17.95
2022-09-28T11:13:09.724Z,15.30
2022-09-28T11:15:43.446Z,14.85
2022-09-28T11:18:34.499Z,13.88
2022-09-28T11:21:21.853Z,15.13
2022-09-28T11:24:19.266Z,16.35
2022-09-28T11:26:53.075Z,13.90
2022-09-28T11:29:51.138Z,14.43
2022-09-28T11:32:23.059Z,15.05
2022-09-28T11:35:51.819Z,12.27
2022-09-28T11:38:34.239Z,12.50
2022-09-28T11:41:21.171Z,12.45
2022-09-28T11:44:12.751Z,12.57
2022-09-28T11:47:04.170Z,12.00
2022-09-28T11:49:38.583Z,8.68
2022-09-28T11:52:17.532Z,9.18
2022-09-28T11:54:52.640Z,7.70
2022-09-28T11:57:25.242Z,7.38
2022-09-28T11:59:56.669Z,7.82
2022-09-28T12:02:26.910Z,7.93
2022-09-28T12:05:26.051Z,9.40
2022-09-28T12:08:13.456Z,8.38
2022-09-28T12:11:12.777Z,8.63
2022-09-28T12:14:01.852Z,7.95
2022-09-28T12:17:04.058Z,7.75
2022-09-28T12:19:52.446Z,9.23
2022-09-28T12:22:32.342Z,6.88
2022-09-28T12:25:02.135Z,7.22
2022-09-28T12:27:42.352Z,7.63
2022-09-28T12:30:22.308Z,7.07
2022-09-28T12:33:00.967Z,8.07
2022-09-28T12:35:57.621Z,6.35
2022-09-28T12:39:14.731Z,6.85
2022-09-28T12:41:50.125Z,7.78
2022-09-28T12:44:26.212Z,9.77
2022-09-28T12:47:25.398Z,7.70
2022-09-28T12:50:37.603Z,6.47
2022-09-28T12:53:34.487Z,8.23
2022-09-28T12:56:17.985Z,8.60
2022-09-28T12:59:20.966Z,7.35
2022-09-28T13:02:07.054Z,7.20
2022-09-28T13:04:53.931Z,7.83
2022-09-28T13:07:29.939Z,6.27
2022-09-28T13:10:03.363Z,8.35
2022-09-28T13:12:53.451Z,6.18
2022-09-28T13:15:57.072Z,6.82
2022-09-28T13:18:43.339Z,6.53
2022-09-28T13:21:28.397Z,7.45
2022-09-28T13:24:09.049Z,5.75
2022-09-28T13:26:49.207Z,5.45
2022-09-28T13:29:20.151Z,5.38
2022-09-28T13:31:57.577Z,5.45
2022-09-28T13:34:33.502Z,5.28
2022-09-28T13:37:21.905Z,6.97
2022-09-28T13:39:52.688Z,4.63
2022-09-28T13:42:47.577Z,5.35
2022-09-28T13:45:20.407Z,4.45
2022-09-28T13:48:05.570Z,4.68
2022-09-28T13:51:02.876Z,6.90
2022-09-28T13:53:48.376Z,6.93
2022-09-28T13:56:27.626Z,4.68
2022-09-28T13:59:24.383Z,6.00
2022-09-28T14:02:09.985Z,3.70
2022-09-28T14:05:00.472Z,4.95
2022-09-28T14:07:36.822Z,4.47
2022-09-28T14:10:21.105Z,4.82
2022-09-28T14:12:51.361Z,4.22
2022-09-28T14:15:36.974Z,5.18
2022-09-28T14:18:27.529Z,4.95
2022-09-28T14:21:00.681Z,4.53
2022-09-28T14:23:31.046Z,6.15
2022-09-28T14:26:20.840Z,5.05
2022-09-28T14:29:43.664Z,5.07
2022-09-28T14:32:11.084Z,4.90
2022-09-28T14:34:48.003Z,5.45
2022-09-28T14:37:46.019Z,7.07
2022-09-28T14:41:10.063Z,4.70
2022-09-28T14:43:58.668Z,4.75
2022-09-28T14:46:27.526Z,12.68
2022-09-28T14:49:20.594Z,5.85
2022-09-28T14:51:47.797Z,6.15
2022-09-28T14:54:21.299Z,6.60
2022-09-28T14:56:54.426Z,4.80
2022-09-28T14:59:30.502Z,5.93
2022-09-28T15:02:01.375Z,6.38
2022-09-28T15:04:30.874Z,6.32
2022-09-28T15:06:58.201Z,9.50
2022-09-28T15:09:28.592Z,9.13
2022-09-28T15:12:15.145Z,8.10
2022-09-28T15:14:55.552Z,6.53
2022-09-28T15:17:26.933Z,8.98
2022-09-28T15:20:06.258Z,8.25
2022-09-28T15:22:34.254Z,7.50
2022-09-28T15:25:04.226Z,8.68
2022-09-28T15:27:38.044Z,9.30
2022-09-28T15:30:27.129Z,10.15
2022-09-28T15:32:57.096Z,12.13
2022-09-28T15:35:26.718Z,9.43
2022-09-28T15:37:55.486Z,8.30
2022-09-28T15:40:35.331Z,9.02
2022-09-28T15:43:11.613Z,11.38
2022-09-28T15:45:40.674Z,10.80
2022-09-28T15:48:31.072Z,9.95
2022-09-28T15:51:12.903Z,9.02
2022-09-28T15:54:09.242Z,10.10
2022-09-28T15:56:59.922Z,8.65
2022-09-28T15:59:32.313Z,10.45
2022-09-28T16:02:12.777Z,10.30
2022-09-28T16:04:50.722Z,9.43
2022-09-28T16:07:39.909Z,10.38
2022-09-28T16:10:13.654Z,11.15
2022-09-28T16:12:42.605Z,9.77
2022-09-28T16:15:31.332Z,11.90
2022-09-28T16:18:02.721Z,12.32
2022-09-28T16:20:36.466Z,12.05
2022-09-28T16:23:34.132Z,10.73
2022-09-28T16:26:14.319Z,14.95
2022-09-28T16:28:45.854Z,11.88
2022-09-28T16:31:13.237Z,12.50
2022-09-28T16:34:19.846Z,14.10
2022-09-28T16:36:49.731Z,19.52
2022-09-28T16:39:18.844Z,16.70
2022-09-28T16:41:51.664Z,16.15
2022-09-28T16:44:23.730Z,13.93
2022-09-28T16:46:53.942Z,14.27
2022-09-28T16:49:23.720Z,16.77
2022-09-28T16:51:51.186Z,18.13
2022-09-28T16:54:44.018Z,16.55
2022-09-28T16:57:13.531Z,19.88
2022-09-28T16:59:40.963Z,19.38
2022-09-28T17:02:42.118Z,20.15
2022-09-28T17:05:07.181Z,19.33
2022-09-28T17:07:34.738Z,26.42
2022-09-28T17:10:02.084Z,26.50
2022-09-28T17:12:29.713Z,27.20
2022-09-28T17:14:57.650Z,29.08
2022-09-28T17:17:29.863Z,27.63
2022-09-28T17:19:57.330Z,25.27
2022-09-28T17:22:24.573Z,26.48
2022-09-28T17:24:51.762Z,33.60
2022-09-28T17:27:19.944Z,33.75
2022-09-28T17:29:47.221Z,33.28
2022-09-28T17:32:18.713Z,34.22
2022-09-28T17:34:55.969Z,30.55
2022-09-28T17:37:28.615Z,31.73
2022-09-28T17:39:55.966Z,35.10
2022-09-28T17:42:23.147Z,36.38
2022-09-28T17:44:50.351Z,30.05
2022-09-28T17:47:18.165Z,34.33
2022-09-28T17:49:46.142Z,34.45
2022-09-28T17:52:14.255Z,35.15
2022-09-28T17:54:41.891Z,32.60
2022-09-28T17:57:11.016Z,34.22
2022-09-28T17:59:47.738Z,32.00
2022-09-28T18:04:51.750Z,36.28
2022-09-28T18:07:19.690Z,30.98
2022-09-28T18:09:46.848Z,32.78
2022-09-28T18:12:14.025Z,31.63
2022-09-28T18:14:41.566Z,32.70
2022-09-28T18:17:08.737Z,31.35
2022-09-28T18:19:35.899Z,32.83
2022-09-28T18:22:03.260Z,34.83
2022-09-28T18:24:32.531Z,37.60
2022-09-28T18:27:00.113Z,37.65
2022-09-28T18:29:32.250Z,35.53
2022-09-28T18:32:00.826Z,34.08
2022-09-28T18:34:28.208Z,32.38
2022-09-28T18:36:55.327Z,29.35
2022-09-28T18:39:23.877Z,28.00
2022-09-28T18:41:51.647Z,32.28
2022-09-28T18:44:18.890Z,30.35
2022-09-28T18:46:46.201Z,30.30
2022-09-28T18:49:13.690Z,29.60
2022-09-28T18:51:40.880Z,25.75
2022-09-28T18:54:08.098Z,29.27
2022-09-28T18:56:37.375Z,30.85
2022-09-28T18:59:11.271Z,29.15
2022-09-28T19:01:40.091Z,30.65
2022-09-28T19:04:09.686Z,30.08
2022-09-28T19:06:42.137Z,27.17
2022-09-28T19:09:10.379Z,30.85
2022-09-28T19:11:37.961Z,30.10
2022-09-28T19:14:05.457Z,27.20
2022-09-28T19:16:34.151Z,27.40
2022-09-28T19:19:02.789Z,28.25
2022-09-28T19:21:31.084Z,24.63
2022-09-28T19:24:02.640Z,25.00
2022-09-28T19:26:30.626Z,20.65
2022-09-28T19:28:58.619Z,20.38
2022-09-28T19:31:26.962Z,22.45
2022-09-28T19:33:54.177Z,21.80
2022-09-28T19:36:24.653Z,21.17
2022-09-28T19:38:53.286Z,27.48
2022-09-28T19:41:43.787Z,26.80
2022-09-28T19:44:15.800Z,30.33
2022-09-28T19:46:43.503Z,29.85
2022-09-28T19:49:13.484Z,32.72
2022-09-28T19:51:51.646Z,30.67
2022-09-28T19:54:35.534Z,33.25
2022-09-28T19:57:14.514Z,32.70
2022-09-28T19:59:42.248Z,35.45
2022-09-28T20:02:11.185Z,28.17
2022-09-28T20:04:38.540Z,21.70
2022-09-28T20:07:06.147Z,24.02
2022-09-28T20:09:33.829Z,23.58
2022-09-28T20:12:01.256Z,21.52
2022-09-28T20:14:34.034Z,19.33
2022-09-28T20:17:05.585Z,16.92
2022-09-28T20:19:33.772Z,14.45
2022-09-28T20:22:03.339Z,17.10
2022-09-28T20:24:31.960Z,16.35
2022-09-28T20:26:59.562Z,18.60
2022-09-28T20:29:26.887Z,15.70
2022-09-28T20:31:54.449Z,18.90
2022-09-28T20:34:21.752Z,15.18
2022-09-28T20:36:49.210Z,13.15
2022-09-28T20:39:16.822Z,15.43
2022-09-28T20:41:46.214Z,13.25
2022-09-28T20:44:13.516Z,16.30
2022-09-28T20:46:41.100Z,14.18
2022-09-28T20:49:08.423Z,14.75
2022-09-28T20:51:35.930Z,14.98
2022-09-28T20:54:03.327Z,14.63
2022-09-28T20:56:37.910Z,12.23
2022-09-28T20:59:08.258Z,12.60
2022-09-28T21:01:35.949Z,12.75
2022-09-28T21:04:05.469Z,11.93
2022-09-28T21:06:38.758Z,10.55
2022-09-28T21:09:08.324Z,14.18
2022-09-28T21:11:36.144Z,10.10
2022-09-28T21:14:06.845Z,13.82
2022-09-28T21:16:35.070Z,11.88
2022-09-28T21:19:03.318Z,11.25
2022-09-28T21:21:30.651Z,12.23
2022-09-28T21:23:58.788Z,10.95
2022-09-28T21:26:28.486Z,10.65
2022-09-28T21:28:56.984Z,9.43
2022-09-28T21:31:29.176Z,11.20
2022-09-28T21:33:57.693Z,10.73
2022-09-28T21:36:25.896Z,9.90
2022-09-28T21:38:55.163Z,9.43
2022-09-28T21:41:23.849Z,11.07
2022-09-28T21:43:51.915Z,11.32
2022-09-28T21:46:19.227Z,13.70
2022-09-28T21:48:50.542Z,10.65
2022-09-28T21:51:17.774Z,9.18
2022-09-28T21:53:44.985Z,10.30
2022-09-28T21:56:13.169Z,11.35
2022-09-28T21:58:40.772Z,11.15
2022-09-28T22:01:18.333Z,10.60
2022-09-28T22:03:48.598Z,11.27
2022-09-28T22:06:18.849Z,10.88
2022-09-28T22:08:47.212Z,11.25
2022-09-28T22:11:17.363Z,9.70
2022-09-28T22:13:47.241Z,11.00
2022-09-28T22:16:18.573Z,10.25
2022-09-28T22:18:46.358Z,9.40
2022-09-28T22:21:14.993Z,10.40
2022-09-28T22:23:42.613Z,10.27
2022-09-28T22:26:20.161Z,9.70
2022-09-28T22:28:55.302Z,9.40
2022-09-28T22:31:25.353Z,10.23
2022-09-28T22:33:53.383Z,9.90
2022-09-28T22:36:21.074Z,10.55
2022-09-28T22:38:48.780Z,11.02
2022-09-28T22:41:17.671Z,10.95
2022-09-28T22:43:44.954Z,10.55
2022-09-28T22:46:14.834Z,10.80
2022-09-28T22:48:46.462Z,10.32
2022-09-28T22:51:13.881Z,11.25
2022-09-28T22:53:41.422Z,11.27
2022-09-28T22:56:09.599Z,11.68
2022-09-28T22:58:38.237Z,11.63
2022-09-28T23:01:11.779Z,13.95
2022-09-28T23:03:42.688Z,13.05
2022-09-28T23:06:11.265Z,11.63
2022-09-28T23:08:39.002Z,12.15
2022-09-28T23:11:07.597Z,16.58
2022-09-28T23:13:35.246Z,10.77
2022-09-28T23:16:23.598Z,12.75
2022-09-28T23:18:52.377Z,10.88
2022-09-28T23:21:22.290Z,12.40
2022-09-28T23:23:58.059Z,13.20
2022-09-28T23:26:29.532Z,10.03
2022-09-28T23:28:57.271Z,11.00
2022-09-28T23:31:28.052Z,10.40
2022-09-28T23:34:13.642Z,11.68
2022-09-28T23:36:40.982Z,10.07
2022-09-28T23:39:10.052Z,10.32
2022-09-28T23:41:37.409Z,12.02
2022-09-28T23:44:05.090Z,9.13
2022-09-28T23:46:32.849Z,9.55
2022-09-28T23:49:00.057Z,11.63
2022-09-28T23:51:27.416Z,10.10
2022-09-28T23:53:54.813Z,10.98
2022-09-28T23:56:22.048Z,10.98
2022-09-28T23:58:49.253Z,12.50
